Time,TemperatureF,DewpointF,PressureIn,WindDirection,WindDirectionDegrees,WindSpeedMPH,WindSpeedGustMPH,Humidity,HourlyPrecipIn,Conditions,Clouds,dailyrainin,SoftwareType,DateUTC
2013-02-13 00:00:00,31.2,26.6,29.88,West,274,0.0,2.0,83,0.00,CLR,,0.00,WeatherDisplay:10.37,2013-02-13 05:00:00,
2013-02-13 00:01:00,31.2,26.6,29.88,West,274,3.5,3.5,83,0.00,RA,,0.00,WeatherDisplay:10.37,2013-02-13 05:01:00,
2013-02-13 00:03:00,31.4,26.8,29.88,West,274,3.5,3.5,83,0.00,RA,,0.00,WeatherDisplay:10.37,2013-02-13 05:03:00,
2013-02-13 00:05:00,31.7,27.4,29.88,West,274,2.3,2.3,84,0.00,RA,,0.00,WeatherDisplay:10.37,2013-02-13 05:05:00,
2013-02-13 00:10:00,31.5,27.2,29.89,West,274,0.0,0.0,84,0.00,CLR,,0.00,WeatherDisplay:10.37,2013-02-13 05:10:00,
2013-02-13 00:15:00,31.6,27.0,29.89,West,274,1.1,0.0,83,0.00,CLR,,0.00,WeatherDisplay:10.37,2013-02-13 05:15:00,
2013-02-13 00:20:00,31.7,26.8,29.89,West,274,2.3,2.3,82,0.00,CLR,,0.00,WeatherDisplay:10.37,2013-02-13 05:20:00,
2013-02-13 00:26:00,31.9,26.7,29.89,West,274,0.0,0.0,81,0.00,CLR,,0.00,WeatherDisplay:10.37,2013-02-13 05:26:00,
2013-02-13 00:31:00,31.4,26.5,29.89,West,274,0.0,0.0,82,0.00,CLR,,0.00,WeatherDisplay:10.37,2013-02-13 05:31:00,
2013-02-13 00:36:00,31.7,26.5,29.89,West,274,1.0,1.0,81,0.00,CLR,,0.00,WeatherDisplay:10.37,2013-02-13 05:36:00,
2013-02-13 00:41:00,31.8,27.5,29.89,West,274,0.0,0.0,84,0.00,CLR,,0.00,WeatherDisplay:10.37,2013-02-13 05:41:00,
2013-02-13 00:46:00,31.6,27.3,29.89,West,274,0.0,0.0,84,0.00,CLR,,0.00,WeatherDisplay:10.37,2013-02-13 05:46:00,
2013-02-13 00:52:00,31.6,27.9,29.89,West,274,0.0,0.0,86,0.00,CLR,,0.00,WeatherDisplay:10.37,2013-02-13 05:52:00,
2013-02-13 00:57:00,31.7,28.0,29.89,West,274,0.0,0.0,86,0.00,CLR,,0.00,WeatherDisplay:10.37,2013-02-13 05:57:00,
2013-02-13 01:02:00,31.3,27.6,29.89,West,274,1.1,0.0,86,0.00,BKN,,0.00,WeatherDisplay:10.37,2013-02-13 06:02:00,
2013-02-13 01:07:00,30.7,27.0,29.89,West,274,2.3,0.0,86,0.00,BKN,,0.00,WeatherDisplay:10.37,2013-02-13 06:07:00,
2013-02-13 01:12:00,31.0,27.0,29.89,West,274,2.0,2.0,85,0.00,BKN,,0.00,WeatherDisplay:10.37,2013-02-13 06:12:00,
2013-02-13 01:18:00,31.2,26.9,29.89,West,274,3.5,3.5,84,0.00,BKN,,0.00,WeatherDisplay:10.37,2013-02-13 06:18:00,
2013-02-13 01:23:00,31.7,26.8,29.89,West,274,1.0,0.0,82,0.00,BKN,,0.00,WeatherDisplay:10.37,2013-02-13 06:23:00,
2013-02-13 01:28:00,31.6,26.7,29.89,West,274,0.0,0.0,82,0.00,BKN,,0.00,WeatherDisplay:10.37,2013-02-13 06:28:00,
2013-02-13 01:33:00,31.6,26.7,29.89,West,274,2.3,2.3,82,0.00,BKN,,0.00,WeatherDisplay:10.37,2013-02-13 06:33:00,
2013-02-13 01:38:00,32.0,26.8,29.90,West,274,1.1,0.0,81,0.00,BKN,,0.00,WeatherDisplay:10.37,2013-02-13 06:38:00,
2013-02-13 01:44:00,32.4,26.9,29.90,West,274,0.0,0.0,80,0.00,BKN,,0.00,WeatherDisplay:10.37,2013-02-13 06:44:00,
2013-02-13 01:49:00,32.0,27.7,29.90,West,274,0.0,0.0,84,0.00,BKN,,0.00,WeatherDisplay:10.37,2013-02-13 06:49:00,
2013-02-13 01:54:00,31.5,27.2,29.90,West,274,0.0,0.0,84,0.00,BKN,,0.00,WeatherDisplay:10.37,2013-02-13 06:54:00,
2013-02-13 01:59:00,31.4,27.1,29.90,West,274,0.0,0.0,84,0.00,BKN,,0.00,WeatherDisplay:10.37,2013-02-13 06:59:00,
2013-02-13 02:04:00,31.4,27.4,29.91,West,274,0.0,0.0,85,0.00,OVC,,0.00,WeatherDisplay:10.37,2013-02-13 07:04:00,
2013-02-13 02:10:00,31.2,27.2,29.90,West,274,0.0,0.0,85,0.00,OVC,,0.00,WeatherDisplay:10.37,2013-02-13 07:10:00,
2013-02-13 02:15:00,31.2,27.2,29.91,West,274,0.0,0.0,85,0.00,OVC,,0.00,WeatherDisplay:10.37,2013-02-13 07:15:00,
2013-02-13 02:20:00,31.4,27.4,29.91,West,274,2.3,2.3,85,0.00,OVC,,0.00,WeatherDisplay:10.37,2013-02-13 07:20:00,
2013-02-13 02:25:00,31.3,27.3,29.91,West,274,2.3,2.3,85,0.00,OVC,,0.00,WeatherDisplay:10.37,2013-02-13 07:25:00,
2013-02-13 02:30:00,31.7,27.4,29.91,West,274,2.0,2.0,84,0.00,OVC,,0.00,WeatherDisplay:10.37,2013-02-13 07:30:00,
2013-02-13 02:35:00,32.1,27.2,29.91,West,274,3.5,3.5,82,0.00,OVC,,0.00,WeatherDisplay:10.37,2013-02-13 07:35:00,
2013-02-13 02:40:00,32.2,27.3,29.91,West,274,2.3,2.3,82,0.00,OVC,,0.00,WeatherDisplay:10.37,2013-02-13 07:40:00,
2013-02-13 02:46:00,32.6,27.4,29.91,West,265,4.6,4.6,81,0.00,OVC,,0.00,WeatherDisplay:10.37,2013-02-13 07:46:00,
2013-02-13 02:51:00,33.3,27.2,29.91,West,263,4.6,4.6,78,0.00,OVC,,0.00,WeatherDisplay:10.37,2013-02-13 07:51:00,
2013-02-13 02:56:00,33.7,27.3,29.91,West,259,5.0,5.0,77,0.00,OVC,,0.00,WeatherDisplay:10.37,2013-02-13 07:56:00,
2013-02-13 03:01:00,33.8,27.0,29.91,WSW,257,2.3,0.0,76,0.00,OVC,,0.00,WeatherDisplay:10.37,2013-02-13 08:01:00,
2013-02-13 03:06:00,33.7,26.6,29.91,SW,231,3.5,3.5,75,0.00,OVC,,0.00,WeatherDisplay:10.37,2013-02-13 08:06:00,
2013-02-13 03:11:00,33.8,26.7,29.91,SW,231,1.1,1.1,75,0.00,OVC,,0.00,WeatherDisplay:10.37,2013-02-13 08:11:00,
2013-02-13 03:17:00,33.8,26.7,29.91,SW,231,2.3,2.3,75,0.00,OVC,,0.00,WeatherDisplay:10.37,2013-02-13 08:17:00,
2013-02-13 03:22:00,33.5,26.4,29.91,SW,231,3.5,3.5,75,0.00,OVC,,0.00,WeatherDisplay:10.37,2013-02-13 08:22:00,
2013-02-13 03:27:00,33.3,26.5,29.91,SW,231,3.5,3.5,76,0.00,OVC,,0.00,WeatherDisplay:10.37,2013-02-13 08:27:00,
2013-02-13 03:32:00,33.2,26.5,29.91,SW,231,3.5,3.5,76,0.00,OVC,,0.00,WeatherDisplay:10.37,2013-02-13 08:32:00,
2013-02-13 03:38:00,33.1,26.4,29.91,WSW,251,3.5,3.5,76,0.00,OVC,,0.00,WeatherDisplay:10.37,2013-02-13 08:38:00,
2013-02-13 03:43:00,33.0,26.3,29.90,WSW,251,2.3,2.3,76,0.00,OVC,,0.00,WeatherDisplay:10.37,2013-02-13 08:43:00,
2013-02-13 03:48:00,33.0,26.3,29.90,WSW,251,2.3,2.3,76,0.00,OVC,,0.00,WeatherDisplay:10.37,2013-02-13 08:48:00,
2013-02-13 03:53:00,33.0,26.3,29.90,WSW,251,0.0,0.0,76,0.00,OVC,,0.00,WeatherDisplay:10.37,2013-02-13 08:53:00,
2013-02-13 03:58:00,32.9,26.2,29.90,WSW,251,0.0,0.0,76,0.00,OVC,,0.00,WeatherDisplay:10.37,2013-02-13 08:58:00,
2013-02-13 04:03:00,32.6,25.9,29.90,WSW,251,0.0,0.0,76,0.00,OVC,,0.00,WeatherDisplay:10.37,2013-02-13 09:03:00,
2013-02-13 04:09:00,32.5,26.1,29.90,WSW,251,0.0,0.0,77,0.00,OVC,,0.00,WeatherDisplay:10.37,2013-02-13 09:09:00,
2013-02-13 04:14:00,32.2,26.1,29.90,WSW,251,0.0,0.0,78,0.00,OVC,,0.00,WeatherDisplay:10.37,2013-02-13 09:14:00,
2013-02-13 04:19:00,31.8,25.7,29.91,WSW,251,0.0,0.0,78,0.00,OVC,,0.00,WeatherDisplay:10.37,2013-02-13 09:19:00,
2013-02-13 04:24:00,31.2,25.4,29.91,WSW,251,0.0,0.0,79,0.00,OVC,,0.00,WeatherDisplay:10.37,2013-02-13 09:24:00,
2013-02-13 04:29:00,31.0,25.6,29.90,WSW,251,2.0,2.0,80,0.00,OVC,,0.00,WeatherDisplay:10.37,2013-02-13 09:29:00,
2013-02-13 04:35:00,31.0,25.6,29.91,WSW,251,2.3,2.3,80,0.00,OVC,,0.00,WeatherDisplay:10.37,2013-02-13 09:35:00,
2013-02-13 04:40:00,30.8,25.7,29.90,WSW,251,0.0,0.0,81,0.00,OVC,,0.00,WeatherDisplay:10.37,2013-02-13 09:40:00,
2013-02-13 04:45:00,30.7,25.6,29.90,WSW,251,2.3,2.3,81,0.00,OVC,,0.00,WeatherDisplay:10.37,2013-02-13 09:45:00,
2013-02-13 04:50:00,30.7,26.1,29.90,WSW,251,0.0,0.0,83,0.00,OVC,,0.00,WeatherDisplay:10.37,2013-02-13 09:50:00,
2013-02-13 04:55:00,30.0,25.5,29.90,WSW,251,1.1,1.1,83,0.00,OVC,,0.00,WeatherDisplay:10.37,2013-02-13 09:55:00,
2013-02-13 05:01:00,29.9,25.4,29.89,WSW,251,0.0,0.0,83,0.00,OVC,,0.00,WeatherDisplay:10.37,2013-02-13 10:01:00,
2013-02-13 05:06:00,29.8,25.6,29.89,WSW,251,2.3,2.3,84,0.00,OVC,,0.00,WeatherDisplay:10.37,2013-02-13 10:06:00,
2013-02-13 05:11:00,29.8,25.8,29.89,WSW,251,2.3,2.3,85,0.00,OVC,,0.00,WeatherDisplay:10.37,2013-02-13 10:11:00,
2013-02-13 05:16:00,29.7,26.0,29.89,WSW,251,1.0,1.0,86,0.00,OVC,,0.00,WeatherDisplay:10.37,2013-02-13 10:16:00,
2013-02-13 05:21:00,29.5,25.8,29.89,NNW,342,3.5,3.5,86,0.00,OVC,,0.00,WeatherDisplay:10.37,2013-02-13 10:21:00,
2013-02-13 05:27:00,29.3,25.9,29.88,NW,325,4.0,4.0,87,0.00,OVC,,0.00,WeatherDisplay:10.37,2013-02-13 10:27:00,
2013-02-13 05:32:00,29.1,25.7,29.88,NW,319,5.0,5.0,87,0.00,OVC,,0.00,WeatherDisplay:10.37,2013-02-13 10:32:00,
2013-02-13 05:37:00,28.9,25.8,29.88,NW,324,6.0,6.0,88,0.00,OVC,,0.00,WeatherDisplay:10.37,2013-02-13 10:37:00,
2013-02-13 05:42:00,28.8,25.7,29.88,NW,317,6.9,6.9,88,0.00,OVC,,0.00,WeatherDisplay:10.37,2013-02-13 10:42:00,
2013-02-13 05:47:00,28.7,25.6,29.88,NW,316,4.6,4.6,88,0.00,OVC,,0.00,WeatherDisplay:10.37,2013-02-13 10:47:00,
2013-02-13 05:53:00,28.9,25.5,29.88,NW,316,0.0,0.0,87,0.00,OVC,,0.00,WeatherDisplay:10.37,2013-02-13 10:53:00,
2013-02-13 05:58:00,28.8,25.4,29.88,NW,316,0.0,0.0,87,0.00,OVC,,0.00,WeatherDisplay:10.37,2013-02-13 10:58:00,
2013-02-13 06:03:00,28.8,25.4,29.88,NW,316,0.0,0.0,87,0.00,FEW,,0.00,WeatherDisplay:10.37,2013-02-13 11:03:00,
2013-02-13 06:08:00,28.7,25.3,29.88,NW,316,2.0,2.0,87,0.00,FEW,,0.00,WeatherDisplay:10.37,2013-02-13 11:08:00,
2013-02-13 06:13:00,28.4,25.0,29.88,NW,316,2.3,0.0,87,0.00,FEW,,0.00,WeatherDisplay:10.37,2013-02-13 11:13:00,
2013-02-13 06:19:00,28.4,25.3,29.88,NW,316,3.5,3.5,88,0.00,FEW,,0.00,WeatherDisplay:10.37,2013-02-13 11:19:00,
2013-02-13 06:24:00,28.3,25.2,29.88,NW,317,6.9,6.9,88,0.00,FEW,,0.00,WeatherDisplay:10.37,2013-02-13 11:24:00,
2013-02-13 06:29:00,28.2,25.1,29.88,NW,317,4.6,4.6,88,0.00,FEW,,0.00,WeatherDisplay:10.37,2013-02-13 11:29:00,
2013-02-13 06:34:00,28.1,25.3,29.88,NW,317,4.0,4.0,89,0.00,FEW,,0.00,WeatherDisplay:10.37,2013-02-13 11:34:00,
2013-02-13 06:39:00,28.1,25.3,29.88,NW,317,3.5,3.5,89,0.00,FEW,,0.00,WeatherDisplay:10.37,2013-02-13 11:39:00,
2013-02-13 06:45:00,27.9,25.1,29.88,NW,317,1.1,1.1,89,0.00,FEW,,0.00,WeatherDisplay:10.37,2013-02-13 11:45:00,
2013-02-13 06:50:00,27.8,25.0,29.89,NW,317,2.3,2.3,89,0.00,FEW,,0.00,WeatherDisplay:10.37,2013-02-13 11:50:00,
2013-02-13 06:55:00,27.6,24.8,29.89,NW,317,0.0,0.0,89,0.00,FEW,,0.00,WeatherDisplay:10.37,2013-02-13 11:55:00,
2013-02-13 07:00:00,27.6,24.8,29.89,NW,317,0.0,0.0,89,0.00,CLR,,0.00,WeatherDisplay:10.37,2013-02-13 12:00:00,
2013-02-13 07:05:00,27.6,25.1,29.89,NW,317,2.3,2.3,90,0.00,CLR,,0.00,WeatherDisplay:10.37,2013-02-13 12:05:00,
2013-02-13 07:11:00,27.7,24.9,29.90,NW,317,0.0,0.0,89,0.00,CLR,,0.00,WeatherDisplay:10.37,2013-02-13 12:11:00,
2013-02-13 07:16:00,27.7,24.9,29.90,NW,317,0.0,0.0,89,0.00,CLR,,0.00,WeatherDisplay:10.37,2013-02-13 12:16:00,
2013-02-13 07:21:00,28.0,25.2,29.90,NW,317,0.0,0.0,89,0.00,CLR,,0.00,WeatherDisplay:10.37,2013-02-13 12:21:00,
2013-02-13 07:26:00,28.9,26.3,29.90,NW,317,0.0,0.0,90,0.00,CLR,,0.00,WeatherDisplay:10.37,2013-02-13 12:26:00,
2013-02-13 07:31:00,29.6,27.0,29.90,NW,317,0.0,0.0,90,0.00,CLR,,0.00,WeatherDisplay:10.37,2013-02-13 12:31:00,
2013-02-13 07:37:00,29.8,27.0,29.90,NW,317,2.3,2.3,89,0.00,CLR,,0.00,WeatherDisplay:10.37,2013-02-13 12:37:00,
2013-02-13 07:42:00,29.8,27.0,29.90,NW,317,1.1,1.1,89,0.00,CLR,,0.00,WeatherDisplay:10.37,2013-02-13 12:42:00,
2013-02-13 07:47:00,30.0,26.9,29.90,NW,317,1.1,1.1,88,0.00,CLR,,0.00,WeatherDisplay:10.37,2013-02-13 12:47:00,
2013-02-13 07:52:00,30.4,27.3,29.90,NW,317,3.0,3.0,88,0.00,CLR,,0.00,WeatherDisplay:10.37,2013-02-13 12:52:00,
2013-02-13 07:57:00,30.3,26.9,29.90,NW,317,1.1,0.0,87,0.00,CLR,,0.00,WeatherDisplay:10.37,2013-02-13 12:57:00,
2013-02-13 08:03:00,30.4,27.3,29.91,NW,317,0.0,0.0,88,0.00,FEW,,0.00,WeatherDisplay:10.37,2013-02-13 13:03:00,
2013-02-13 08:08:00,31.9,28.5,29.91,NW,317,0.0,0.0,87,0.00,FEW,,0.00,WeatherDisplay:10.37,2013-02-13 13:08:00,
2013-02-13 08:13:00,32.1,28.1,29.90,NW,317,1.1,0.0,85,0.00,FEW,,0.00,WeatherDisplay:10.37,2013-02-13 13:13:00,
2013-02-13 08:18:00,32.1,28.4,29.90,NW,317,0.0,0.0,86,0.00,FEW,,0.00,WeatherDisplay:10.37,2013-02-13 13:18:00,
2013-02-13 08:23:00,32.0,28.0,29.90,NW,317,0.0,0.0,85,0.00,FEW,,0.00,WeatherDisplay:10.37,2013-02-13 13:23:00,
2013-02-13 08:28:00,31.9,28.2,29.90,NW,317,1.1,1.1,86,0.00,FEW,,0.00,WeatherDisplay:10.37,2013-02-13 13:28:00,
2013-02-13 08:34:00,32.3,28.3,29.90,NW,317,0.0,0.0,85,0.00,FEW,,0.00,WeatherDisplay:10.37,2013-02-13 13:34:00,
2013-02-13 08:39:00,32.3,28.3,29.90,NW,317,2.3,2.3,85,0.00,FEW,,0.00,WeatherDisplay:10.37,2013-02-13 13:39:00,
2013-02-13 08:44:00,32.3,28.3,29.90,NW,317,2.3,2.3,85,0.00,FEW,,0.00,WeatherDisplay:10.37,2013-02-13 13:44:00,
2013-02-13 08:49:00,32.6,28.6,29.90,NW,317,0.0,0.0,85,0.00,FEW,,0.00,WeatherDisplay:10.37,2013-02-13 13:49:00,
2013-02-13 08:54:00,32.9,28.0,29.89,NW,317,0.0,0.0,82,0.00,FEW,,0.00,WeatherDisplay:10.37,2013-02-13 13:54:00,
2013-02-13 09:00:00,33.0,28.4,29.89,NW,317,0.0,0.0,83,0.00,FEW,,0.00,WeatherDisplay:10.37,2013-02-13 14:00:00,
2013-02-13 09:05:00,33.9,28.7,29.89,NW,317,0.0,0.0,81,0.00,CLR,,0.00,WeatherDisplay:10.37,2013-02-13 14:05:00,
2013-02-13 09:10:00,34.0,28.2,29.88,NW,317,0.0,0.0,79,0.00,CLR,,0.00,WeatherDisplay:10.37,2013-02-13 14:10:00,
2013-02-13 09:15:00,33.9,28.4,29.88,NW,317,0.0,0.0,80,0.00,CLR,,0.00,WeatherDisplay:10.37,2013-02-13 14:15:00,
2013-02-13 09:20:00,34.4,29.2,29.88,NW,317,2.3,2.3,81,0.00,CLR,,0.00,WeatherDisplay:10.37,2013-02-13 14:20:00,
2013-02-13 09:26:00,35.1,29.2,29.88,NW,317,0.0,0.0,79,0.00,CLR,,0.00,WeatherDisplay:10.37,2013-02-13 14:26:00,
2013-02-13 09:31:00,34.8,28.0,29.88,NW,317,0.0,0.0,76,0.00,CLR,,0.00,WeatherDisplay:10.37,2013-02-13 14:31:00,
2013-02-13 09:36:00,35.1,28.0,29.87,NW,317,2.3,2.3,75,0.00,CLR,,0.00,WeatherDisplay:10.37,2013-02-13 14:36:00,
2013-02-13 09:41:00,35.7,28.9,29.87,NW,317,3.5,3.5,76,0.00,CLR,,0.00,WeatherDisplay:10.37,2013-02-13 14:41:00,
2013-02-13 09:46:00,36.4,27.9,29.87,NW,317,3.5,3.5,71,0.00,CLR,,0.00,WeatherDisplay:10.37,2013-02-13 14:46:00,
2013-02-13 09:52:00,36.7,27.1,29.87,NW,317,3.5,3.5,68,0.00,CLR,,0.00,WeatherDisplay:10.37,2013-02-13 14:52:00,
2013-02-13 09:57:00,37.0,27.1,29.87,NNW,329,3.5,3.5,67,0.00,CLR,,0.00,WeatherDisplay:10.37,2013-02-13 14:57:00,
2013-02-13 10:02:00,37.1,26.8,29.87,NNE,18,5.8,5.8,66,0.00,CLR,,0.00,WeatherDisplay:10.37,2013-02-13 15:02:00,
2013-02-13 10:07:00,37.0,27.1,29.87,NNE,19,5.0,5.0,67,0.00,CLR,,0.00,WeatherDisplay:10.37,2013-02-13 15:07:00,
2013-02-13 10:12:00,37.5,26.8,29.86,North,355,5.0,5.2,65,0.00,CLR,,0.00,WeatherDisplay:10.37,2013-02-13 15:12:00,
2013-02-13 10:18:00,37.7,26.2,29.86,NNW,346,10.4,10.4,63,0.00,CLR,,0.00,WeatherDisplay:10.37,2013-02-13 15:18:00,
2013-02-13 10:23:00,37.8,26.7,29.86,North,355,5.8,5.8,64,0.00,CLR,,0.00,WeatherDisplay:10.37,2013-02-13 15:23:00,
2013-02-13 10:28:00,37.8,26.3,29.86,NW,306,6.9,6.9,63,0.00,CLR,,0.00,WeatherDisplay:10.37,2013-02-13 15:28:00,
2013-02-13 10:33:00,37.9,26.8,29.86,North,9,8.1,8.1,64,0.00,CLR,,0.00,WeatherDisplay:10.37,2013-02-13 15:33:00,
2013-02-13 10:38:00,37.9,26.0,29.86,NNW,340,8.1,8.1,62,0.00,CLR,,0.00,WeatherDisplay:10.37,2013-02-13 15:38:00,
2013-02-13 10:44:00,38.1,26.2,29.85,NNW,346,11.5,11.5,62,0.00,CLR,,0.00,WeatherDisplay:10.37,2013-02-13 15:44:00,
2013-02-13 10:49:00,38.1,26.2,29.85,North,351,6.9,6.9,62,0.00,CLR,,0.00,WeatherDisplay:10.37,2013-02-13 15:49:00,
2013-02-13 10:54:00,38.0,26.1,29.85,North,10,8.0,8.0,62,0.00,CLR,,0.00,WeatherDisplay:10.37,2013-02-13 15:54:00,
2013-02-13 10:59:00,37.8,26.7,29.85,North,355,10.0,10.0,64,0.00,CLR,,0.00,WeatherDisplay:10.37,2013-02-13 15:59:00,
2013-02-13 11:04:00,38.2,26.3,29.85,NE,36,8.0,8.0,62,0.00,CLR,,0.00,WeatherDisplay:10.37,2013-02-13 16:04:00,
2013-02-13 11:10:00,37.9,27.2,29.85,NNE,24,5.0,5.0,65,0.00,CLR,,0.00,WeatherDisplay:10.37,2013-02-13 16:10:00,
2013-02-13 11:15:00,38.6,26.7,29.86,NNE,25,1.0,9.0,62,0.00,CLR,,0.00,WeatherDisplay:10.37,2013-02-13 16:15:00,
2013-02-13 11:20:00,38.7,26.0,29.86,NNE,22,2.3,2.3,60,0.00,CLR,,0.00,WeatherDisplay:10.37,2013-02-13 16:20:00,
2013-02-13 11:25:00,38.0,25.7,29.86,East,79,4.0,4.0,61,0.00,CLR,,0.00,WeatherDisplay:10.37,2013-02-13 16:25:00,
2013-02-13 11:30:00,37.6,26.1,29.86,ESE,122,5.8,5.8,63,0.00,CLR,,0.00,WeatherDisplay:10.37,2013-02-13 16:30:00,
2013-02-13 11:35:00,37.9,25.6,29.86,SE,134,5.8,5.8,61,0.00,CLR,,0.00,WeatherDisplay:10.37,2013-02-13 16:35:00,
2013-02-13 11:41:00,38.2,25.5,29.86,SE,134,4.0,4.0,60,0.00,CLR,,0.00,WeatherDisplay:10.37,2013-02-13 16:41:00,
2013-02-13 11:46:00,38.3,25.6,29.86,SE,142,6.0,6.0,60,0.00,CLR,,0.00,WeatherDisplay:10.37,2013-02-13 16:46:00,
2013-02-13 11:51:00,38.3,26.8,29.86,SSE,166,11.5,11.5,63,0.00,CLR,,0.00,WeatherDisplay:10.37,2013-02-13 16:51:00,
2013-02-13 11:56:00,38.2,26.7,29.86,South,184,10.4,10.4,63,0.00,CLR,,0.00,WeatherDisplay:10.37,2013-02-13 16:56:00,
2013-02-13 12:01:00,37.9,26.0,29.86,SSE,148,17.3,17.3,62,0.00,FEW,,0.00,WeatherDisplay:10.37,2013-02-13 17:01:00,
2013-02-13 12:07:00,37.9,27.2,29.86,SSE,153,13.8,13.8,65,0.00,FEW,,0.00,WeatherDisplay:10.37,2013-02-13 17:07:00,
2013-02-13 12:12:00,38.2,27.1,29.85,SSE,161,13.8,13.8,64,0.00,FEW,,0.00,WeatherDisplay:10.37,2013-02-13 17:12:00,
2013-02-13 12:17:00,38.3,27.6,29.85,SSE,159,11.5,11.5,65,0.00,FEW,,0.00,WeatherDisplay:10.37,2013-02-13 17:17:00,
2013-02-13 12:22:00,38.2,26.7,29.85,SSE,166,11.5,11.5,63,0.00,FEW,,0.00,WeatherDisplay:10.37,2013-02-13 17:22:00,
2013-02-13 12:27:00,38.6,26.7,29.85,South,188,9.2,9.2,62,0.00,FEW,,0.00,WeatherDisplay:10.37,2013-02-13 17:27:00,
2013-02-13 12:32:00,38.6,26.7,29.85,SW,228,17.3,17.3,62,0.00,FEW,,0.00,WeatherDisplay:10.37,2013-02-13 17:32:00,
2013-02-13 12:37:00,38.7,27.6,29.84,SW,232,9.2,9.2,64,0.00,FEW,,0.00,WeatherDisplay:10.37,2013-02-13 17:37:00,
2013-02-13 12:43:00,38.5,26.6,29.84,South,173,11.5,11.5,62,0.00,FEW,,0.00,WeatherDisplay:10.37,2013-02-13 17:43:00,
2013-02-13 12:48:00,38.7,26.8,29.84,SSW,212,9.2,9.2,62,0.00,FEW,,0.00,WeatherDisplay:10.37,2013-02-13 17:48:00,
2013-02-13 12:53:00,38.9,26.6,29.83,SW,233,9.2,9.2,61,0.00,FEW,,0.00,WeatherDisplay:10.37,2013-02-13 17:53:00,
2013-02-13 12:58:00,38.8,26.1,29.83,SSW,196,16.1,16.1,60,0.00,FEW,,0.00,WeatherDisplay:10.37,2013-02-13 17:58:00,
2013-02-13 13:03:00,38.9,26.2,29.83,South,186,15.0,15.0,60,0.00,SCT,,0.00,WeatherDisplay:10.37,2013-02-13 18:03:00,
2013-02-13 13:09:00,39.5,26.8,29.83,SW,233,8.1,8.1,60,0.00,SCT,,0.00,WeatherDisplay:10.37,2013-02-13 18:09:00,
2013-02-13 13:14:00,39.4,26.2,29.82,WSW,244,8.1,8.1,59,0.00,SCT,,0.00,WeatherDisplay:10.37,2013-02-13 18:14:00,
2013-02-13 13:19:00,39.4,26.2,29.82,SW,236,9.2,9.2,59,0.00,SCT,,0.00,WeatherDisplay:10.37,2013-02-13 18:19:00,
2013-02-13 13:24:00,39.5,26.3,29.82,SW,216,7.0,7.0,59,0.00,SCT,,0.00,WeatherDisplay:10.37,2013-02-13 18:24:00,
2013-02-13 13:29:00,39.7,26.5,29.81,WSW,243,6.9,6.9,59,0.00,SCT,,0.00,WeatherDisplay:10.37,2013-02-13 18:29:00,
2013-02-13 13:35:00,39.9,26.3,29.81,West,261,6.0,6.0,58,0.00,SCT,,0.00,WeatherDisplay:10.37,2013-02-13 18:35:00,
2013-02-13 13:40:00,40.0,26.0,29.80,SW,227,4.6,4.6,57,0.00,SCT,,0.00,WeatherDisplay:10.37,2013-02-13 18:40:00,
2013-02-13 13:45:00,39.9,25.9,29.80,SSW,204,8.1,8.1,57,0.00,SCT,,0.00,WeatherDisplay:10.37,2013-02-13 18:45:00,
2013-02-13 13:50:00,40.5,26.4,29.80,West,270,3.5,3.5,57,0.00,SCT,,0.00,WeatherDisplay:10.37,2013-02-13 18:50:00,
2013-02-13 13:55:00,40.5,26.0,29.79,West,263,3.5,3.5,56,0.00,SCT,,0.00,WeatherDisplay:10.37,2013-02-13 18:55:00,
2013-02-13 14:01:00,40.9,25.5,29.79,SSW,200,5.8,5.8,54,0.00,SCT,,0.00,WeatherDisplay:10.37,2013-02-13 19:01:00,
2013-02-13 14:06:00,40.7,24.4,29.79,SSW,213,8.1,8.1,52,0.00,SCT,,0.00,WeatherDisplay:10.37,2013-02-13 19:06:00,
2013-02-13 14:11:00,40.6,24.3,29.78,SW,234,9.2,9.2,52,0.00,SCT,,0.00,WeatherDisplay:10.37,2013-02-13 19:11:00,
2013-02-13 14:16:00,40.4,24.6,29.77,South,190,4.0,4.0,53,0.00,SCT,,0.00,WeatherDisplay:10.37,2013-02-13 19:16:00,
2013-02-13 14:21:00,40.4,24.6,29.77,South,184,3.5,3.5,53,0.00,SCT,,0.00,WeatherDisplay:10.37,2013-02-13 19:21:00,
2013-02-13 14:26:00,40.3,24.5,29.77,South,187,5.8,5.8,53,0.00,SCT,,0.00,WeatherDisplay:10.37,2013-02-13 19:26:00,
2013-02-13 14:32:00,40.3,24.1,29.76,SSE,165,4.6,4.6,52,0.00,SCT,,0.00,WeatherDisplay:10.37,2013-02-13 19:32:00,
2013-02-13 14:37:00,39.3,26.6,29.76,East,90,5.8,5.8,60,0.00,SCT,,0.00,WeatherDisplay:10.37,2013-02-13 19:37:00,
2013-02-13 14:42:00,38.8,27.7,29.76,East,86,11.5,11.5,64,0.00,SCT,,0.00,WeatherDisplay:10.37,2013-02-13 19:42:00,
2013-02-13 14:47:00,37.8,28.2,29.76,ESE,107,8.1,8.1,68,0.00,SCT,,0.00,WeatherDisplay:10.37,2013-02-13 19:47:00,
2013-02-13 14:52:00,38.0,28.4,29.76,ESE,102,11.5,11.5,68,0.00,SCT,,0.00,WeatherDisplay:10.37,2013-02-13 19:52:00,
2013-02-13 14:58:00,38.8,27.7,29.76,East,99,8.0,8.0,64,0.00,SCT,,0.00,WeatherDisplay:10.37,2013-02-13 19:58:00,
2013-02-13 15:03:00,39.0,27.5,29.76,ESE,116,4.6,4.6,63,0.00,SCT,,0.00,WeatherDisplay:10.37,2013-02-13 20:03:00,
2013-02-13 15:08:00,38.8,27.3,29.76,SSE,150,9.2,9.2,63,0.00,SCT,,0.00,WeatherDisplay:10.37,2013-02-13 20:08:00,
2013-02-13 15:13:00,39.7,26.5,29.77,SSE,152,7.0,7.0,59,0.00,SCT,,0.00,WeatherDisplay:10.37,2013-02-13 20:13:00,
2013-02-13 15:18:00,39.9,26.7,29.77,SE,142,6.9,6.9,59,0.00,SCT,,0.00,WeatherDisplay:10.37,2013-02-13 20:18:00,
2013-02-13 15:24:00,40.0,26.8,29.77,South,182,9.2,9.2,59,0.00,SCT,,0.00,WeatherDisplay:10.37,2013-02-13 20:24:00,
2013-02-13 15:29:00,40.1,26.1,29.76,SSW,207,8.1,8.1,57,0.00,SCT,,0.00,WeatherDisplay:10.37,2013-02-13 20:29:00,
2013-02-13 15:34:00,40.0,26.4,29.76,SSE,150,8.1,8.1,58,0.00,SCT,,0.00,WeatherDisplay:10.37,2013-02-13 20:34:00,
2013-02-13 15:39:00,40.1,25.6,29.75,SSW,199,6.9,6.9,56,0.00,SCT,,0.00,WeatherDisplay:10.37,2013-02-13 20:39:00,
2013-02-13 15:44:00,40.2,26.6,29.75,SSE,161,6.0,6.0,58,0.00,SCT,,0.00,WeatherDisplay:10.37,2013-02-13 20:44:00,
2013-02-13 15:49:00,39.5,26.8,29.75,South,170,8.1,8.1,60,0.00,SCT,,0.00,WeatherDisplay:10.37,2013-02-13 20:49:00,
2013-02-13 15:55:00,40.1,25.6,29.75,SSE,165,9.2,9.2,56,0.00,SCT,,0.00,WeatherDisplay:10.37,2013-02-13 20:55:00,
2013-02-13 16:00:00,39.6,26.8,29.75,SSE,167,7.0,11.0,60,0.00,SCT,,0.00,WeatherDisplay:10.37,2013-02-13 21:00:00,
2013-02-13 16:05:00,39.1,26.0,29.75,SSE,166,10.4,10.4,59,0.00,SCT,,0.00,WeatherDisplay:10.37,2013-02-13 21:05:00,
2013-02-13 16:10:00,39.1,26.0,29.76,South,181,10.4,10.4,59,0.00,SCT,,0.00,WeatherDisplay:10.37,2013-02-13 21:10:00,
2013-02-13 16:15:00,39.0,25.9,29.75,SSE,163,8.1,8.1,59,0.00,SCT,,0.00,WeatherDisplay:10.37,2013-02-13 21:15:00,
2013-02-13 16:20:00,38.8,25.7,29.76,South,169,11.5,11.5,59,0.00,SCT,,0.00,WeatherDisplay:10.37,2013-02-13 21:20:00,
2013-02-13 16:25:00,38.5,25.8,29.76,South,173,10.4,10.4,60,0.00,SCT,,0.00,WeatherDisplay:10.37,2013-02-13 21:25:00,
2013-02-13 16:31:00,38.4,25.7,29.76,SSW,196,9.2,9.2,60,0.00,SCT,,0.00,WeatherDisplay:10.37,2013-02-13 21:31:00,
2013-02-13 16:36:00,38.1,26.2,29.76,SSW,204,8.1,8.1,62,0.00,SCT,,0.00,WeatherDisplay:10.37,2013-02-13 21:36:00,
2013-02-13 16:41:00,37.9,26.0,29.75,South,175,5.0,5.0,62,0.00,SCT,,0.00,WeatherDisplay:10.37,2013-02-13 21:41:00,
2013-02-13 16:46:00,37.9,26.4,29.76,South,187,4.6,4.6,63,0.00,SCT,,0.00,WeatherDisplay:10.37,2013-02-13 21:46:00,
2013-02-13 16:52:00,37.8,26.3,29.75,South,184,4.6,4.6,63,0.00,SCT,,0.00,WeatherDisplay:10.37,2013-02-13 21:52:00,
2013-02-13 16:57:00,37.8,26.3,29.75,South,180,3.5,3.5,63,0.00,SCT,,0.00,WeatherDisplay:10.37,2013-02-13 21:57:00,
2013-02-13 17:02:00,37.8,25.9,29.74,South,180,2.3,2.3,62,0.00,BKN,,0.00,WeatherDisplay:10.37,2013-02-13 22:02:00,
2013-02-13 17:07:00,37.7,25.8,29.74,South,180,3.5,3.5,62,0.00,BKN,,0.00,WeatherDisplay:10.37,2013-02-13 22:07:00,
2013-02-13 17:12:00,37.5,26.0,29.75,South,180,0.0,0.0,63,0.00,BKN,,0.00,WeatherDisplay:10.37,2013-02-13 22:12:00,
2013-02-13 17:18:00,37.3,26.6,29.74,South,180,0.0,0.0,65,0.00,BKN,,0.00,WeatherDisplay:10.37,2013-02-13 22:18:00,
2013-02-13 17:23:00,36.5,28.0,29.74,South,180,1.1,1.1,71,0.00,BKN,,0.00,WeatherDisplay:10.37,2013-02-13 22:23:00,
2013-02-13 17:28:00,36.1,27.9,29.74,South,180,0.0,0.0,72,0.00,BKN,,0.00,WeatherDisplay:10.37,2013-02-13 22:28:00,
2013-02-13 17:33:00,36.0,27.8,29.74,South,180,0.0,0.0,72,0.00,BKN,,0.00,WeatherDisplay:10.37,2013-02-13 22:33:00,
2013-02-13 17:38:00,35.7,28.2,29.74,South,180,2.3,2.3,74,0.00,BKN,,0.00,WeatherDisplay:10.37,2013-02-13 22:38:00,
2013-02-13 17:44:00,35.5,29.0,29.74,South,180,0.0,0.0,77,0.00,BKN,,0.00,WeatherDisplay:10.37,2013-02-13 22:44:00,
2013-02-13 17:49:00,35.6,28.5,29.73,South,180,0.0,0.0,75,0.00,BKN,,0.00,WeatherDisplay:10.37,2013-02-13 22:49:00,
2013-02-13 17:54:00,35.9,28.4,29.73,South,180,1.1,0.0,74,0.00,BKN,,0.00,WeatherDisplay:10.37,2013-02-13 22:54:00,
2013-02-13 17:59:00,35.7,28.6,29.73,South,180,3.5,3.5,75,0.00,BKN,,0.00,WeatherDisplay:10.37,2013-02-13 22:59:00,
2013-02-13 18:04:00,35.2,28.7,29.72,NW,325,3.5,3.5,77,0.00,OVC,,0.00,WeatherDisplay:10.37,2013-02-13 23:04:00,
2013-02-13 18:10:00,35.2,28.7,29.71,NW,326,3.5,3.5,77,0.00,OVC,,0.00,WeatherDisplay:10.37,2013-02-13 23:10:00,
2013-02-13 18:15:00,35.1,28.6,29.71,NW,326,2.0,4.0,77,0.00,OVC,,0.00,WeatherDisplay:10.37,2013-02-13 23:15:00,
2013-02-13 18:20:00,35.0,28.5,29.71,NNW,335,3.5,3.5,77,0.00,OVC,,0.00,WeatherDisplay:10.37,2013-02-13 23:20:00,
2013-02-13 18:25:00,35.0,28.5,29.71,NW,323,3.5,3.5,77,0.00,OVC,,0.00,WeatherDisplay:10.37,2013-02-13 23:25:00,
2013-02-13 18:30:00,34.9,28.4,29.72,NW,306,3.5,3.5,77,0.00,OVC,,0.00,WeatherDisplay:10.37,2013-02-13 23:30:00,
2013-02-13 18:35:00,35.2,28.4,29.72,NW,306,2.0,2.0,76,0.00,OVC,,0.00,WeatherDisplay:10.37,2013-02-13 23:35:00,
2013-02-13 18:41:00,35.1,28.6,29.72,NW,306,0.0,0.0,77,0.00,OVC,,0.00,WeatherDisplay:10.37,2013-02-13 23:41:00,
2013-02-13 18:46:00,34.6,28.8,29.73,SSW,202,3.5,3.5,79,0.00,OVC,,0.00,WeatherDisplay:10.37,2013-02-13 23:46:00,
2013-02-13 18:51:00,34.3,29.1,29.73,South,175,1.1,1.1,81,0.00,OVC,,0.00,WeatherDisplay:10.37,2013-02-13 23:51:00,
2013-02-13 18:56:00,34.3,28.8,29.72,South,175,0.0,0.0,80,0.00,OVC,,0.00,WeatherDisplay:10.37,2013-02-13 23:56:00,
2013-02-13 19:01:00,34.2,29.3,29.73,South,175,3.5,3.5,82,0.00,OVC,,0.00,WeatherDisplay:10.37,2013-02-14 00:01:00,
2013-02-13 19:06:00,34.0,28.8,29.72,South,175,2.3,2.3,81,0.00,OVC,,0.00,WeatherDisplay:10.37,2013-02-14 00:06:00,
2013-02-13 19:11:00,34.0,28.8,29.72,South,175,0.0,0.0,81,0.00,OVC,,0.00,WeatherDisplay:10.37,2013-02-14 00:11:00,
2013-02-13 19:17:00,34.1,29.2,29.72,South,175,0.0,0.0,82,0.00,OVC,,0.00,WeatherDisplay:10.37,2013-02-14 00:17:00,
2013-02-13 19:22:00,33.9,29.6,29.71,NNW,346,5.0,5.0,84,0.00,OVC,,0.00,WeatherDisplay:10.37,2013-02-14 00:22:00,
2013-02-13 19:27:00,33.7,29.4,29.70,NNW,327,5.8,5.8,84,0.00,OVC,,0.00,WeatherDisplay:10.37,2013-02-14 00:27:00,
2013-02-13 19:32:00,33.9,29.0,29.70,NNW,335,3.5,3.5,82,0.00,OVC,,0.00,WeatherDisplay:10.37,2013-02-14 00:32:00,
2013-02-13 19:37:00,34.1,29.2,29.70,NNW,335,3.5,3.5,82,0.00,OVC,,0.00,WeatherDisplay:10.37,2013-02-14 00:37:00,
2013-02-13 19:43:00,34.1,29.2,29.70,NNW,335,3.5,3.5,82,0.00,OVC,,0.00,WeatherDisplay:10.37,2013-02-14 00:43:00,
2013-02-13 19:48:00,34.2,28.7,29.71,NNW,335,1.1,1.1,80,0.00,OVC,,0.00,WeatherDisplay:10.37,2013-02-14 00:48:00,
2013-02-13 19:53:00,34.4,28.6,29.71,NNW,335,0.0,0.0,79,0.00,OVC,,0.00,WeatherDisplay:10.37,2013-02-14 00:53:00,
2013-02-13 19:58:00,34.3,28.8,29.70,NNW,335,0.0,0.0,80,0.00,OVC,,0.00,WeatherDisplay:10.37,2013-02-14 00:58:00,
2013-02-13 20:03:00,34.3,28.5,29.71,NNW,335,0.0,0.0,79,0.00,OVC,,0.00,WeatherDisplay:10.37,2013-02-14 01:03:00,
2013-02-13 20:08:00,34.5,28.3,29.71,NNW,335,0.0,0.0,78,0.00,OVC,,0.00,WeatherDisplay:10.37,2013-02-14 01:08:00,
2013-02-13 20:13:00,34.4,28.9,29.71,NNW,335,2.3,0.0,80,0.00,OVC,,0.00,WeatherDisplay:10.37,2013-02-14 01:13:00,
2013-02-13 20:19:00,34.1,28.9,29.71,NNW,335,0.0,0.0,81,0.00,OVC,,0.00,WeatherDisplay:10.37,2013-02-14 01:19:00,
2013-02-13 20:24:00,34.0,28.8,29.71,NNW,335,0.0,0.0,81,0.00,OVC,,0.00,WeatherDisplay:10.37,2013-02-14 01:24:00,
2013-02-13 20:29:00,34.1,28.9,29.71,NNW,335,0.0,0.0,81,0.00,OVC,,0.00,WeatherDisplay:10.37,2013-02-14 01:29:00,
2013-02-13 20:34:00,33.9,29.3,29.71,NNW,335,0.0,0.0,83,0.00,OVC,,0.00,WeatherDisplay:10.37,2013-02-14 01:34:00,
2013-02-13 20:39:00,34.0,28.8,29.71,NNW,335,0.0,0.0,81,0.00,OVC,,0.00,WeatherDisplay:10.37,2013-02-14 01:39:00,
2013-02-13 20:45:00,33.9,29.0,29.70,NNW,335,0.0,0.0,82,0.00,OVC,,0.00,WeatherDisplay:10.37,2013-02-14 01:45:00,
2013-02-13 20:50:00,33.7,29.1,29.71,NNW,335,0.0,0.0,83,0.00,OVC,,0.00,WeatherDisplay:10.37,2013-02-14 01:50:00,
2013-02-13 20:55:00,33.7,29.1,29.71,NNW,335,0.0,0.0,83,0.00,OVC,,0.00,WeatherDisplay:10.37,2013-02-14 01:55:00,
2013-02-13 21:00:00,33.4,28.8,29.71,NNW,335,1.1,0.0,83,0.00,OVC,,0.00,WeatherDisplay:10.37,2013-02-14 02:00:00,
2013-02-13 21:05:00,33.3,29.0,29.71,NNW,335,0.0,0.0,84,0.00,OVC,,0.00,WeatherDisplay:10.37,2013-02-14 02:05:00,
2013-02-13 21:11:00,33.5,28.9,29.71,NNW,335,1.1,1.1,83,0.00,OVC,,0.00,WeatherDisplay:10.37,2013-02-14 02:11:00,
2013-02-13 21:16:00,33.5,29.2,29.71,NNW,335,2.3,2.3,84,0.00,OVC,,0.00,WeatherDisplay:10.37,2013-02-14 02:16:00,
2013-02-13 21:21:00,33.6,29.0,29.71,NNW,335,0.0,0.0,83,0.00,OVC,,0.00,WeatherDisplay:10.37,2013-02-14 02:21:00,
2013-02-13 21:26:00,33.5,28.9,29.70,NNW,335,0.0,0.0,83,0.00,OVC,,0.00,WeatherDisplay:10.37,2013-02-14 02:26:00,
2013-02-13 21:31:00,33.6,29.0,29.70,NNW,335,0.0,0.0,83,0.00,OVC,,0.00,WeatherDisplay:10.37,2013-02-14 02:31:00,
2013-02-13 21:37:00,33.5,29.2,29.70,NNW,335,0.0,0.0,84,0.00,OVC,,0.00,WeatherDisplay:10.37,2013-02-14 02:37:00,
2013-02-13 21:42:00,33.5,29.2,29.69,NNW,335,2.3,2.3,84,0.00,OVC,,0.00,WeatherDisplay:10.37,2013-02-14 02:42:00,
2013-02-13 21:47:00,33.4,29.4,29.69,NNW,335,3.5,3.5,85,0.00,OVC,,0.00,WeatherDisplay:10.37,2013-02-14 02:47:00,
2013-02-13 21:52:00,33.3,29.6,29.69,NNW,335,2.3,2.3,86,0.00,OVC,,0.00,WeatherDisplay:10.37,2013-02-14 02:52:00,
2013-02-13 21:57:00,33.2,29.8,29.69,NNW,335,0.0,0.0,87,0.00,OVC,,0.00,WeatherDisplay:10.37,2013-02-14 02:57:00,
2013-02-13 22:03:00,33.2,29.8,29.70,NNW,335,0.0,0.0,87,0.00,OVC,,0.00,WeatherDisplay:10.37,2013-02-14 03:03:00,
2013-02-13 22:08:00,33.2,29.8,29.70,NNW,335,1.1,1.1,87,0.00,OVC,,0.00,WeatherDisplay:10.37,2013-02-14 03:08:00,
2013-02-13 22:13:00,33.2,29.5,29.69,NNW,335,0.0,0.0,86,0.00,OVC,,0.00,WeatherDisplay:10.37,2013-02-14 03:13:00,
2013-02-13 22:18:00,33.3,29.3,29.69,NNW,335,3.5,3.5,85,0.00,OVC,,0.00,WeatherDisplay:10.37,2013-02-14 03:18:00,
2013-02-13 22:23:00,33.6,29.0,29.69,NNW,335,0.0,0.0,83,0.00,OVC,,0.00,WeatherDisplay:10.37,2013-02-14 03:23:00,
2013-02-13 22:29:00,33.5,29.2,29.68,NNW,335,4.0,4.0,84,0.00,OVC,,0.00,WeatherDisplay:10.37,2013-02-14 03:29:00,
2013-02-13 22:34:00,33.3,29.3,29.67,NNW,338,3.5,3.5,85,0.00,OVC,,0.00,WeatherDisplay:10.37,2013-02-14 03:34:00,
2013-02-13 22:39:00,33.3,29.3,29.67,NW,315,4.6,4.6,85,0.00,OVC,,0.00,WeatherDisplay:10.37,2013-02-14 03:39:00,
2013-02-13 22:44:00,33.5,28.9,29.66,NW,304,3.5,3.5,83,0.00,OVC,,0.00,WeatherDisplay:10.37,2013-02-14 03:44:00,
2013-02-13 22:49:00,33.5,28.9,29.67,NW,305,2.3,2.3,83,0.00,OVC,,0.00,WeatherDisplay:10.37,2013-02-14 03:49:00,
2013-02-13 22:55:00,33.6,29.0,29.68,NW,305,0.0,0.0,83,0.00,OVC,,0.00,WeatherDisplay:10.37,2013-02-14 03:55:00,
2013-02-13 23:00:00,33.8,28.9,29.69,WNW,303,1.0,3.0,82,0.00,OVC,,0.00,WeatherDisplay:10.37,2013-02-14 04:00:00,
2013-02-13 23:05:00,33.9,28.7,29.70,WNW,284,3.5,3.5,81,0.00,OVC,,0.00,WeatherDisplay:10.37,2013-02-14 04:05:00,
2013-02-13 23:10:00,34.0,28.5,29.70,WNW,284,0.0,0.0,80,0.00,OVC,,0.00,WeatherDisplay:10.37,2013-02-14 04:10:00,
2013-02-13 23:15:00,34.1,28.6,29.70,WNW,284,0.0,0.0,80,0.00,OVC,,0.00,WeatherDisplay:10.37,2013-02-14 04:15:00,
2013-02-13 23:21:00,34.0,28.8,29.70,WNW,284,0.0,0.0,81,0.00,OVC,,0.00,WeatherDisplay:10.37,2013-02-14 04:21:00,
2013-02-13 23:26:00,34.0,28.8,29.70,WNW,284,0.0,0.0,81,0.00,OVC,,0.00,WeatherDisplay:10.37,2013-02-14 04:26:00,
2013-02-13 23:31:00,34.2,28.4,29.70,WNW,284,0.0,0.0,79,0.00,OVC,,0.00,WeatherDisplay:10.37,2013-02-14 04:31:00,
2013-02-13 23:36:00,34.4,28.2,29.70,WNW,284,0.0,0.0,78,0.00,OVC,,0.00,WeatherDisplay:10.37,2013-02-14 04:36:00,
2013-02-13 23:41:00,34.6,28.4,29.71,WNW,284,0.0,0.0,78,0.00,OVC,,0.00,WeatherDisplay:10.37,2013-02-14 04:41:00,
2013-02-13 23:47:00,34.3,28.8,29.71,WNW,284,0.0,0.0,80,0.00,OVC,,0.00,WeatherDisplay:10.37,2013-02-14 04:47:00,
2013-02-13 23:52:00,34.3,28.8,29.72,WNW,284,0.0,0.0,80,0.00,OVC,,0.00,WeatherDisplay:10.37,2013-02-14 04:52:00,
2013-02-13 23:57:00,34.3,28.8,29.72,WNW,284,2.3,2.3,80,0.00,OVC,,0.00,WeatherDisplay:10.37,2013-02-14 04:57:00,